This is the latest recevied weather packets stored in our database for station/object N2MLB-WX. If no packets are shown the sender has not sent any weather packets the latest 10 day(s).
| Time | Temp. | Humidity | Pressure | Rain* | Wind** | Luminosity | Snow |
|---|---|---|---|---|---|---|---|
| 1777841239 | 12.22° C | 51% | 1006 hPa | 0 mm | - | 43 W/m² | - |
| 1777840939 | 12.22° C | 52% | 1006 hPa | 0 mm | - | 39 W/m² | - |
| 1777840640 | 12.22° C | 54% | 1006 hPa | 0 mm | - | 41 W/m² | - |
| 1777840339 | 12.22° C | 52% | 1006 hPa | 0 mm | - | 46 W/m² | - |
| 1777840039 | 12.22° C | 53% | 1006 hPa | 0 mm | - | 40 W/m² | - |
| 1777839740 | 12.78° C | 54% | 1006 hPa | 0 mm | - | 56 W/m² | - |
| 1777839440 | 12.22° C | 54% | 1006 hPa | 0 mm | - | 46 W/m² | - |
| 1777839139 | 13.33° C | 50% | 1006 hPa | 0 mm | - | 61 W/m² | - |
| 1777838841 | 13.33° C | 51% | 1006 hPa | 0 mm | - | 111 W/m² | - |
| 1777838540 | 13.33° C | 54% | 1006 hPa | 0 mm | - | 98 W/m² | - |
| 1777838240 | 14.44° C | 48% | 1007 hPa | 0 mm | - | 135 W/m² | - |
| 1777837939 | 15° C | 50% | 1007 hPa | 0 mm | - | 133 W/m² | - |
| 1777837640 | 13.89° C | 51% | 1007 hPa | 0 mm | - | 143 W/m² | - |
| 1777837340 | 13.89° C | 49% | 1007 hPa | 0 mm | - | 143 W/m² | - |
| 1777837040 | 12.22° C | 52% | 1007 hPa | 0 mm | - | 102 W/m² | - |
| 1777836739 | 13.33° C | 52% | 1007 hPa | 0 mm | - | 107 W/m² | - |
| 1777836440 | 13.33° C | 54% | 1007 hPa | 0 mm | - | 95 W/m² | - |
| 1777836140 | 13.33° C | 51% | 1007 hPa | 0 mm | - | 101 W/m² | - |
| 1777835840 | 13.33° C | 53% | 1007 hPa | 0 mm | - | 75 W/m² | - |
| 1777835539 | 12.78° C | 52% | 1007 hPa | 0 mm | - | 159 W/m² | - |
| 1777835239 | 12.22° C | 54% | 1007 hPa | 0 mm | - | 86 W/m² | - |
| 1777834939 | 12.22° C | 54% | 1007 hPa | 0 mm | - | 105 W/m² | - |
| 1777834640 | 12.78° C | 50% | 1008 hPa | 0 mm | - | 82 W/m² | - |
| 1777834340 | 12.78° C | 52% | 1008 hPa | 0 mm | - | 131 W/m² | - |
| 1777834040 | 12.22° C | 54% | 1008 hPa | 0 mm | - | 93 W/m² | - |
* Rain latest hour (hover to see other rain measurements)
** Current wind speed in m/s (hover to see current wind gust speed)